Time;durP1;ratioP1;P1;durP2;ratioP2;P2;SDS_P1;SDS_P2;PMS_P1;PMS_P2;Temp;Humidity;BMP_temperature;BMP_pressure;BME280_temperature;BME280_humidity;BME280_pressure;Samples;Min_cycle;Max_cycle;Signal;HPM_P1;HPM_P2
2022/04/01 00:00:35;;;;;;;1.60;0.90;;;16.30;44.30;;;;;;4950983;28;93045;-64
2022/04/01 00:03:02;;;;;;;1.70;0.90;;;16.30;44.20;;;;;;4951419;28;93116;-64
2022/04/01 00:05:27;;;;;;;1.17;0.80;;;16.20;44.30;;;;;;4951090;28;93071;-64
2022/04/01 00:07:54;;;;;;;0.98;0.70;;;16.20;44.30;;;;;;4951598;28;93214;-63
2022/04/01 00:10:19;;;;;;;1.70;0.75;;;16.20;44.30;;;;;;4951690;28;100806;-64
2022/04/01 00:12:46;;;;;;;1.83;1.00;;;16.20;44.30;;;;;;4951621;28;94664;-64
2022/04/01 00:15:13;;;;;;;0.93;0.60;;;16.20;44.30;;;;;;4950818;28;96580;-64
2022/04/01 00:17:39;;;;;;;1.63;0.90;;;16.20;44.30;;;;;;4951248;28;96338;-63
2022/04/01 00:20:06;;;;;;;1.27;0.90;;;16.20;44.20;;;;;;4951270;28;93146;-64
2022/04/01 00:22:31;;;;;;;1.05;0.70;;;16.20;44.30;;;;;;4952088;28;92625;-63
2022/04/01 00:24:57;;;;;;;1.40;0.77;;;16.20;44.20;;;;;;4952248;28;93206;-63
2022/04/01 00:27:23;;;;;;;1.00;0.70;;;16.20;44.30;;;;;;4952574;28;92953;-64
2022/04/01 00:29:49;;;;;;;1.75;0.80;;;16.10;44.20;;;;;;4953045;28;92968;-64
2022/04/01 00:32:14;;;;;;;1.08;0.70;;;16.10;44.30;;;;;;4951879;28;91943;-63
2022/04/01 00:34:40;;;;;;;0.85;0.80;;;16.10;44.20;;;;;;4951611;28;96393;-64
2022/04/01 00:37:06;;;;;;;2.15;1.05;;;16.10;44.20;;;;;;4952239;28;92895;-64
2022/04/01 00:39:32;;;;;;;1.00;0.80;;;16.10;44.20;;;;;;4950853;28;94939;-64
2022/04/01 00:41:59;;;;;;;1.73;0.82;;;16.10;44.20;;;;;;4951867;28;92588;-63
2022/04/01 00:44:27;;;;;;;1.45;0.82;;;16.10;44.20;;;;;;4950739;28;94181;-64
2022/04/01 00:46:56;;;;;;;1.10;0.90;;;16.10;44.20;;;;;;4950888;28;93767;-63
2022/04/01 00:49:22;;;;;;;1.33;1.00;;;16.10;44.20;;;;;;4951571;28;92589;-64
2022/04/01 00:51:49;;;;;;;2.10;0.70;;;16.10;44.20;;;;;;4952205;28;92849;-64
2022/04/01 00:54:17;;;;;;;1.20;1.00;;;16.00;44.10;;;;;;4951293;28;94022;-63
2022/04/01 00:56:44;;;;;;;1.85;0.90;;;16.00;44.10;;;;;;4951694;28;93886;-64
2022/04/01 00:59:10;;;;;;;1.33;0.80;;;16.00;44.10;;;;;;4951123;28;92596;-64
2022/04/01 01:01:37;;;;;;;1.45;0.70;;;16.00;44.30;;;;;;4951535;28;92530;-63
2022/04/01 01:04:09;;;;;;;1.10;0.88;;;16.00;44.10;;;;;;4949778;28;97068;-63
2022/04/01 01:06:38;;;;;;;1.30;0.70;;;16.00;44.10;;;;;;4950861;28;96171;-64
2022/04/01 01:09:04;;;;;;;1.33;0.70;;;16.00;44.10;;;;;;4950416;28;92909;-64
2022/04/01 01:11:31;;;;;;;1.20;0.70;;;16.00;44.20;;;;;;4951076;28;92529;-63
2022/04/01 01:13:57;;;;;;;1.17;0.77;;;16.00;44.10;;;;;;4951132;28;92828;-64
2022/04/01 01:16:22;;;;;;;1.15;0.80;;;16.00;44.20;;;;;;4950508;28;93928;-64
2022/04/01 01:19:01;;;;;;;1.15;0.60;;;15.90;44.10;;;;;;4951001;28;92596;-63
2022/04/01 01:21:28;;;;;;;1.02;0.80;;;15.90;44.00;;;;;;4951211;28;91686;-64
2022/04/01 01:24:03;;;;;;;1.10;0.88;;;15.90;44.10;;;;;;4951674;28;93023;-64
2022/04/01 01:26:29;;;;;;;1.50;0.88;;;15.90;44.00;;;;;;4950824;28;93978;-64
2022/04/01 01:28:56;;;;;;;1.00;0.70;;;15.90;44.10;;;;;;4950200;28;94985;-63
2022/04/01 01:31:22;;;;;;;2.05;0.90;;;15.90;44.00;;;;;;4951484;28;92913;-64
2022/04/01 01:33:48;;;;;;;1.00;0.70;;;15.90;44.00;;;;;;4951282;28;93402;-64
2022/04/01 01:36:16;;;;;;;1.25;0.80;;;15.90;44.00;;;;;;4950695;28;94349;-64
2022/04/01 01:38:41;;;;;;;1.92;0.93;;;15.90;44.00;;;;;;4951004;28;92521;-64
2022/04/01 01:41:07;;;;;;;1.77;1.00;;;15.90;44.00;;;;;;4951922;28;92810;-64
2022/04/01 01:43:33;;;;;;;0.88;0.75;;;15.90;44.00;;;;;;4951635;28;94125;-66
2022/04/01 01:45:59;;;;;;;1.58;0.90;;;15.80;43.90;;;;;;4950746;28;100495;-65
2022/04/01 01:48:25;;;;;;;1.17;0.80;;;15.90;44.00;;;;;;4950879;28;92533;-64
2022/04/01 01:56:20;;;;;;;1.15;0.82;;;15.80;44.10;;;;;;4951077;28;94870;-63
2022/04/01 01:58:45;;;;;;;0.90;0.77;;;15.80;44.00;;;;;;4951077;28;92620;-64
2022/04/01 02:01:11;;;;;;;1.33;0.85;;;15.80;44.00;;;;;;4951397;28;92818;-64
2022/04/01 02:03:37;;;;;;;0.98;0.70;;;15.80;44.10;;;;;;4950238;28;93261;-64
2022/04/01 02:06:03;;;;;;;1.20;0.90;;;15.80;43.90;;;;;;4951175;28;92690;-64
2022/04/01 02:08:29;;;;;;;2.53;0.90;;;15.80;43.90;;;;;;4950389;28;93071;-64
2022/04/01 02:10:56;;;;;;;1.48;0.90;;;15.80;44.00;;;;;;4950865;28;92027;-64
2022/04/01 02:13:22;;;;;;;0.93;0.82;;;15.80;43.90;;;;;;4949874;28;94125;-64
2022/04/01 02:15:47;;;;;;;1.00;0.80;;;15.80;43.90;;;;;;4950757;28;93745;-64
2022/04/01 02:18:13;;;;;;;1.92;0.90;;;15.80;44.00;;;;;;4947924;28;99668;-64
2022/04/01 02:20:39;;;;;;;0.95;0.80;;;15.80;43.90;;;;;;4949866;28;92579;-64
2022/04/01 02:23:05;;;;;;;1.83;0.85;;;15.70;44.00;;;;;;4950204;28;93957;-64
2022/04/01 02:25:31;;;;;;;1.05;0.80;;;15.70;43.90;;;;;;4949303;28;93793;-65
2022/04/01 02:44:47;;;;;;;2.92;0.93;;;15.60;43.90;;;;;;4953671;28;92542;-64
2022/04/01 02:47:13;;;;;;;2.08;1.00;;;15.60;44.00;;;;;;4951933;28;96886;-65
2022/04/01 02:49:38;;;;;;;2.03;0.90;;;15.60;43.90;;;;;;4953181;28;103867;-65
2022/04/01 02:52:05;;;;;;;1.40;1.00;;;15.60;44.00;;;;;;4953464;28;92570;-64
2022/04/01 02:54:33;;;;;;;1.17;0.93;;;15.60;43.90;;;;;;4953223;28;93712;-63
2022/04/01 02:56:59;;;;;;;1.55;0.80;;;15.60;43.80;;;;;;4953508;28;94748;-63
2022/04/01 02:59:25;;;;;;;0.80;0.70;;;15.60;43.80;;;;;;4953403;28;93396;-63
2022/04/01 03:01:51;;;;;;;1.20;0.88;;;15.60;43.80;;;;;;4953051;28;92937;-63
2022/04/01 03:04:17;;;;;;;1.75;1.02;;;15.60;43.80;;;;;;4953828;28;91867;-63
2022/04/01 03:06:43;;;;;;;1.42;1.08;;;15.60;43.80;;;;;;4952856;28;93161;-63
2022/04/01 03:09:12;;;;;;;1.45;1.00;;;15.60;43.80;;;;;;4952830;28;94227;-63
2022/04/01 03:11:39;;;;;;;1.50;0.90;;;15.60;43.80;;;;;;4951312;28;95489;-65
2022/04/01 03:14:07;;;;;;;1.17;0.80;;;15.60;43.80;;;;;;4952956;28;92944;-63
2022/04/01 04:20:49;;;;;;;1.17;0.90;;;15.70;43.30;;;;;;4928977;28;93046;-64
2022/04/01 04:23:16;;;;;;;1.13;0.90;;;15.70;43.20;;;;;;4931438;28;93106;-64
2022/04/01 04:25:53;;;;;;;1.40;0.98;;;15.70;43.10;;;;;;4931857;28;94234;-64
2022/04/01 04:28:25;;;;;;;1.33;1.00;;;15.80;43.10;;;;;;4932987;28;93147;-63
2022/04/01 04:30:53;;;;;;;1.42;0.90;;;15.70;43.00;;;;;;4931493;28;92752;-63
2022/04/01 04:33:22;;;;;;;1.20;0.90;;;15.70;42.90;;;;;;4933020;28;92497;-63
2022/04/01 04:35:51;;;;;;;1.70;1.00;;;15.70;42.80;;;;;;4930468;28;96162;-64
2022/04/01 04:38:20;;;;;;;1.40;1.05;;;15.80;43.00;;;;;;4931567;28;95537;-63
2022/04/01 04:40:46;;;;;;;1.52;1.23;;;15.80;42.90;;;;;;4932009;28;93894;-64
2022/04/01 04:43:18;;;;;;;1.13;0.85;;;15.80;42.80;;;;;;4933214;28;92507;-64
2022/04/01 04:45:47;;;;;;;1.73;0.88;;;15.80;42.70;;;;;;4931955;28;94648;-63
2022/04/01 04:48:13;;;;;;;1.10;0.82;;;15.80;42.70;;;;;;4931766;28;93897;-64
2022/04/01 04:50:43;;;;;;;1.67;0.90;;;15.80;42.70;;;;;;4931111;28;92804;-62
2022/04/01 04:53:12;;;;;;;0.98;0.80;;;15.80;42.60;;;;;;4931902;28;91727;-63
2022/04/01 04:55:39;;;;;;;5.45;0.98;;;15.80;42.60;;;;;;4931836;28;93095;-63
2022/04/01 04:58:08;;;;;;;1.85;0.85;;;15.80;42.60;;;;;;4931264;28;94234;-66
2022/04/01 05:00:35;;;;;;;2.03;0.80;;;15.90;42.70;;;;;;4930512;28;95426;-63
2022/04/01 05:03:07;;;;;;;1.20;0.90;;;15.80;43.60;;;;;;4914239;28;92918;-63
2022/04/01 05:05:51;;;;;;;3.40;1.00;;;15.90;42.60;;;;;;4931146;28;94189;-64
2022/04/01 05:08:40;;;;;;;2.38;0.82;;;15.90;42.60;;;;;;4932247;28;92825;-64
2022/04/01 05:11:22;;;;;;;1.02;0.80;;;15.90;42.60;;;;;;4930838;28;92897;-64
2022/04/01 05:13:58;;;;;;;0.93;0.90;;;15.90;42.60;;;;;;4932030;28;92413;-64
2022/04/01 05:16:36;;;;;;;1.27;0.90;;;15.90;42.60;;;;;;4930648;28;94250;-64
2022/04/01 05:19:26;;;;;;;2.08;0.73;;;15.90;42.70;;;;;;4937301;28;93287;-65
2022/04/01 05:22:05;;;;;;;1.77;1.00;;;15.90;42.60;;;;;;4951082;28;92741;-64
2022/04/01 05:24:52;;;;;;;2.08;0.80;;;15.80;42.50;;;;;;4950967;28;93031;-64
2022/04/01 05:27:30;;;;;;;1.70;0.80;;;15.90;42.60;;;;;;4949248;28;96288;-64
2022/04/01 05:30:28;;;;;;;1.13;0.80;;;15.80;42.80;;;;;;4949966;28;96621;-64
2022/04/01 05:33:02;;;;;;;0.90;0.80;;;15.80;42.80;;;;;;4931190;28;92879;-64
2022/04/01 05:35:37;;;;;;;2.70;0.80;;;15.80;42.90;;;;;;4950880;28;92749;-64
2022/04/01 05:38:04;;;;;;;2.35;1.00;;;15.80;42.90;;;;;;4950624;28;94546;-64
2022/04/01 05:40:32;;;;;;;2.17;0.88;;;15.80;42.90;;;;;;4949518;28;93946;-65
2022/04/01 05:43:00;;;;;;;2.22;0.90;;;15.80;42.90;;;;;;4950083;28;93881;-64
2022/04/01 05:45:28;;;;;;;1.05;0.93;;;15.80;42.90;;;;;;4950663;28;91761;-64
2022/04/01 05:47:55;;;;;;;4.18;1.10;;;15.80;43.10;;;;;;4950795;28;93260;-66
2022/04/01 05:50:21;;;;;;;2.80;0.95;;;15.80;43.10;;;;;;4949574;28;93860;-63
2022/04/01 05:52:48;;;;;;;4.68;1.10;;;15.80;43.10;;;;;;4948990;28;95473;-63
2022/04/01 05:55:16;;;;;;;3.67;1.00;;;15.80;43.20;;;;;;4948991;28;93010;-64
2022/04/01 05:57:42;;;;;;;3.88;1.25;;;15.80;43.30;;;;;;4949535;28;93506;-64
2022/04/01 06:00:12;;;;;;;1.42;0.70;;;15.80;43.50;;;;;;4950270;28;94051;-64
2022/04/01 06:03:07;;;;;;;4.60;1.00;;;15.90;43.60;;;;;;4950574;28;92958;-63
2022/04/01 06:06:01;;;;;;;3.10;1.00;;;16.10;43.80;;;;;;4954283;28;93953;-63
2022/04/01 06:08:39;;;;;;;2.65;0.80;;;16.20;43.80;;;;;;4953199;28;94235;-62
2022/04/01 06:11:37;;;;;;;6.45;1.05;;;16.40;44.10;;;;;;4953882;28;92801;-64
2022/04/01 06:14:29;;;;;;;6.05;0.80;;;16.50;44.40;;;;;;4953015;28;93158;-63
2022/04/01 06:17:08;;;;;;;2.67;0.90;;;16.70;44.40;;;;;;4953521;28;93183;-64
2022/04/01 06:19:47;;;;;;;5.07;1.10;;;16.80;44.60;;;;;;4950642;28;96856;-64
2022/04/01 06:22:20;;;;;;;4.47;0.90;;;16.90;44.80;;;;;;4952346;28;96249;-65
2022/04/01 06:25:12;;;;;;;5.18;0.95;;;17.00;44.80;;;;;;4953472;28;92806;-63
2022/04/01 06:27:53;;;;;;;6.03;1.33;;;17.00;44.90;;;;;;4953203;28;93893;-63
2022/04/01 06:30:20;;;;;;;6.57;1.00;;;17.10;45.00;;;;;;4954195;28;94103;-63
2022/04/01 06:32:55;;;;;;;7.65;1.00;;;17.10;45.10;;;;;;4953025;28;94807;-63
2022/04/01 06:35:28;;;;;;;3.78;1.02;;;17.10;45.20;;;;;;4953526;28;92551;-63
2022/04/01 06:38:00;;;;;;;3.00;0.98;;;17.20;45.30;;;;;;4953088;28;91865;-63
2022/04/01 06:40:55;;;;;;;6.78;0.90;;;17.20;45.40;;;;;;4952190;28;94077;-63
2022/04/01 06:43:22;;;;;;;5.72;0.90;;;17.30;45.50;;;;;;4952110;28;93908;-64
2022/04/01 06:45:47;;;;;;;3.00;0.70;;;17.30;45.50;;;;;;4951482;28;94955;-67
2022/04/01 06:48:13;;;;;;;4.88;1.17;;;17.30;46.50;;;;;;4952777;28;93150;-65
2022/04/01 06:50:38;;;;;;;3.65;0.90;;;17.30;45.60;;;;;;4953207;28;92967;-63
2022/04/01 06:53:05;;;;;;;1.75;0.68;;;17.30;45.60;;;;;;4952731;28;93912;-63
2022/04/01 06:55:30;;;;;;;1.92;0.90;;;17.30;45.70;;;;;;4952089;28;93084;-63
2022/04/01 06:57:56;;;;;;;2.15;0.82;;;17.30;45.80;;;;;;4952999;28;92876;-64
2022/04/01 07:00:22;;;;;;;4.50;0.70;;;17.30;45.90;;;;;;4952418;28;94085;-63
2022/04/01 07:02:49;;;;;;;2.13;0.80;;;17.30;45.90;;;;;;4953514;28;92154;-65
2022/04/01 07:05:15;;;;;;;2.38;0.88;;;17.30;46.00;;;;;;4952517;28;92486;-66
2022/04/01 07:07:44;;;;;;;3.22;0.77;;;17.30;47.10;;;;;;4951653;28;92423;-62
2022/04/01 07:10:13;;;;;;;1.38;0.60;;;17.30;47.10;;;;;;4951151;28;96843;-64
2022/04/01 07:12:39;;;;;;;2.50;0.70;;;17.30;46.10;;;;;;4953216;28;96639;-63
2022/04/01 07:15:07;;;;;;;1.70;0.70;;;17.30;46.10;;;;;;4952253;28;92797;-63
2022/04/01 07:17:33;;;;;;;3.28;0.88;;;17.30;46.20;;;;;;4952510;28;93072;-65
2022/04/01 07:19:59;;;;;;;1.88;0.70;;;17.30;47.30;;;;;;4953343;28;93514;-62
2022/04/01 07:22:25;;;;;;;2.33;0.68;;;17.30;46.30;;;;;;4951869;28;93812;-65
2022/04/01 07:24:50;;;;;;;1.80;0.80;;;17.30;46.30;;;;;;4952875;28;92615;-63
2022/04/01 07:27:17;;;;;;;4.05;0.70;;;17.20;46.30;;;;;;4952599;28;91890;-63
2022/04/01 07:29:44;;;;;;;1.98;0.70;;;17.20;46.40;;;;;;4953448;28;94541;-63
2022/04/01 07:32:29;;;;;;;1.33;0.73;;;17.20;46.40;;;;;;4952533;28;92730;-63
2022/04/01 07:34:55;;;;;;;1.63;0.80;;;17.20;46.60;;;;;;4950547;28;95041;-63
2022/04/01 07:37:23;;;;;;;1.83;0.82;;;17.20;46.60;;;;;;4952318;28;92400;-63
2022/04/01 07:39:51;;;;;;;1.70;0.60;;;17.10;46.60;;;;;;4952639;28;94334;-63
2022/04/01 07:42:18;;;;;;;1.40;0.55;;;17.10;46.60;;;;;;4951127;28;94069;-63
2022/04/01 07:44:44;;;;;;;1.40;0.60;;;17.10;46.60;;;;;;4951815;28;93035;-63
2022/04/01 07:47:10;;;;;;;1.75;0.60;;;17.00;46.60;;;;;;4951667;28;93067;-64
2022/04/01 07:49:40;;;;;;;1.92;0.63;;;17.00;46.70;;;;;;4951689;28;94182;-63
2022/04/01 07:52:08;;;;;;;2.20;0.70;;;17.00;46.90;;;;;;4951688;28;93947;-63
2022/04/01 07:54:35;;;;;;;1.45;0.68;;;17.00;47.00;;;;;;4951448;28;92622;-62
2022/04/01 07:57:02;;;;;;;1.02;0.50;;;16.90;46.80;;;;;;4951994;28;92421;-62
2022/04/01 07:59:28;;;;;;;2.55;0.80;;;16.90;46.60;;;;;;4950213;28;97637;-62
2022/04/01 08:01:53;;;;;;;2.33;0.70;;;16.80;46.60;;;;;;4951501;28;95610;-63
2022/04/01 08:04:19;;;;;;;0.90;0.50;;;16.80;46.50;;;;;;4951779;28;92830;-66
2022/04/01 08:06:45;;;;;;;1.75;0.70;;;16.80;46.60;;;;;;4952432;28;92652;-62
2022/04/01 08:09:12;;;;;;;1.42;0.80;;;16.80;46.60;;;;;;4951760;28;93774;-63
2022/04/01 08:11:37;;;;;;;1.65;0.60;;;16.70;46.60;;;;;;4951228;28;101161;-65
2022/04/01 08:14:03;;;;;;;1.25;0.60;;;16.70;46.60;;;;;;4951774;28;92948;-62
2022/04/01 08:16:29;;;;;;;2.17;0.73;;;16.70;46.60;;;;;;4951820;28;92106;-62
2022/04/01 08:18:54;;;;;;;1.73;0.70;;;16.60;46.50;;;;;;4949568;28;94015;-62
2022/04/01 08:21:20;;;;;;;1.75;0.70;;;16.60;46.60;;;;;;4951102;28;92886;-62
2022/04/01 08:23:46;;;;;;;1.85;0.65;;;16.60;46.70;;;;;;4950996;28;94973;-63
2022/04/01 08:26:13;;;;;;;2.72;0.80;;;16.60;46.70;;;;;;4951381;28;93138;-62
2022/04/01 08:28:39;;;;;;;1.58;0.70;;;16.50;46.60;;;;;;4952436;28;94245;-62
2022/04/01 08:31:07;;;;;;;1.20;0.60;;;16.50;46.60;;;;;;4951951;28;93101;-63
2022/04/01 08:33:33;;;;;;;2.15;0.80;;;16.50;47.30;;;;;;4951686;28;93085;-63
2022/04/01 08:36:00;;;;;;;2.30;0.70;;;16.50;46.70;;;;;;4952474;28;93107;-63
2022/04/01 08:38:26;;;;;;;2.33;0.80;;;16.40;46.60;;;;;;4951626;28;105839;-62
2022/04/01 08:40:52;;;;;;;2.10;0.90;;;16.40;46.60;;;;;;4952105;28;92824;-62
2022/04/01 08:43:31;;;;;;;3.08;0.70;;;16.40;46.70;;;;;;4951350;28;93952;-66
2022/04/01 08:46:01;;;;;;;1.95;0.75;;;16.40;46.60;;;;;;4951530;28;92699;-63
2022/04/01 08:48:30;;;;;;;1.17;0.68;;;16.40;46.70;;;;;;4950009;28;96737;-63
2022/04/01 08:50:56;;;;;;;1.23;0.60;;;16.30;46.70;;;;;;4951135;28;96272;-62
2022/04/01 08:53:22;;;;;;;1.10;0.60;;;16.30;46.70;;;;;;4951322;28;92938;-62
2022/04/01 08:55:51;;;;;;;1.33;0.70;;;16.30;46.70;;;;;;4952396;28;92962;-63
2022/04/01 08:58:19;;;;;;;2.40;1.02;;;16.30;46.70;;;;;;4950764;28;94360;-63
2022/04/01 09:00:46;;;;;;;1.85;0.50;;;16.30;47.70;;;;;;4951571;28;93800;-64
2022/04/01 09:03:15;;;;;;;1.65;0.70;;;16.30;46.80;;;;;;4952112;28;92569;-63
2022/04/01 09:05:51;;;;;;;2.45;0.70;;;16.30;46.80;;;;;;4951855;28;91827;-62
2022/04/01 09:08:23;;;;;;;1.40;0.50;;;16.30;46.70;;;;;;4951211;28;94215;-63
2022/04/01 09:11:01;;;;;;;2.15;0.70;;;16.30;46.70;;;;;;4951638;28;94340;-63
2022/04/01 09:13:32;;;;;;;1.95;0.60;;;16.20;46.80;;;;;;4950228;28;94943;-63
2022/04/01 09:15:59;;;;;;;1.75;0.70;;;16.30;46.80;;;;;;4952081;28;93055;-65
2022/04/01 09:18:42;;;;;;;3.00;0.85;;;16.20;46.80;;;;;;4950324;28;93689;-65
2022/04/01 09:21:13;;;;;;;1.35;0.80;;;16.30;46.70;;;;;;4951089;28;94454;-63
2022/04/01 09:23:44;;;;;;;1.20;0.63;;;16.20;46.80;;;;;;4951246;28;92826;-63
2022/04/01 09:26:10;;;;;;;0.90;0.50;;;16.20;46.70;;;;;;4952338;28;92987;-63
2022/04/01 09:28:42;;;;;;;1.23;0.60;;;16.20;46.80;;;;;;4950958;28;93224;-64
2022/04/01 09:31:14;;;;;;;1.17;0.60;;;16.20;46.70;;;;;;4952033;28;93750;-64
2022/04/01 09:33:43;;;;;;;1.20;0.60;;;16.20;46.70;;;;;;4951494;28;93074;-63
2022/04/01 09:36:13;;;;;;;0.60;0.47;;;16.20;46.80;;;;;;4952384;28;92641;-63
2022/04/01 09:38:39;;;;;;;1.20;0.50;;;16.20;46.70;;;;;;4949997;28;95520;-63
2022/04/01 09:41:07;;;;;;;1.33;0.60;;;16.20;46.60;;;;;;4950506;28;96276;-63
2022/04/01 09:43:39;;;;;;;1.85;0.90;;;16.20;46.60;;;;;;4951657;28;93021;-63
2022/04/01 09:46:20;;;;;;;1.02;0.60;;;16.20;46.50;;;;;;4950875;28;92826;-62
2022/04/01 09:48:47;;;;;;;1.17;0.50;;;16.20;46.60;;;;;;4950810;28;94227;-63
2022/04/01 09:51:13;;;;;;;1.27;0.80;;;16.20;46.50;;;;;;4950241;28;96498;-63
2022/04/01 09:53:40;;;;;;;1.77;0.63;;;16.20;46.50;;;;;;4950726;28;92978;-63
2022/04/01 09:56:06;;;;;;;1.13;0.75;;;16.20;46.50;;;;;;4951006;28;91742;-62
2022/04/01 09:58:32;;;;;;;1.02;0.60;;;16.20;46.50;;;;;;4949767;28;94741;-63
2022/04/01 10:01:01;;;;;;;1.80;0.70;;;16.20;46.50;;;;;;4951323;28;93801;-63
2022/04/01 10:03:27;;;;;;;1.45;0.80;;;16.20;46.40;;;;;;4950109;28;95373;-63
2022/04/01 10:05:53;;;;;;;2.42;0.88;;;16.30;46.40;;;;;;4950769;28;93622;-62
2022/04/01 10:08:22;;;;;;;1.27;0.68;;;16.30;46.40;;;;;;4950919;28;94351;-63
2022/04/01 10:10:48;;;;;;;1.25;0.70;;;16.30;46.30;;;;;;4950426;28;93673;-63
2022/04/01 10:13:30;;;;;;;1.48;0.70;;;16.30;46.30;;;;;;4951307;28;92453;-63
2022/04/01 10:15:57;;;;;;;0.80;0.70;;;16.30;46.30;;;;;;4950898;28;92548;-65
2022/04/01 10:18:25;;;;;;;1.10;0.80;;;16.30;46.40;;;;;;4950395;28;93171;-63
2022/04/01 10:20:55;;;;;;;2.67;0.80;;;16.40;46.40;;;;;;4950640;28;93765;-64
2022/04/01 10:23:23;;;;;;;2.35;0.70;;;16.50;46.30;;;;;;4950974;28;93163;-63
2022/04/01 10:26:20;;;;;;;2.65;0.60;;;16.60;46.30;;;;;;4950805;28;93040;-63
2022/04/01 10:28:49;;;;;;;7.28;1.40;;;16.80;46.30;;;;;;4929047;28;96879;-62
2022/04/01 10:31:15;;;;;;;6.93;1.02;;;17.00;46.70;;;;;;4949856;28;96356;-63
2022/04/01 10:33:41;;;;;;;5.10;1.10;;;17.10;47.00;;;;;;4950234;28;93107;-63
2022/04/01 10:36:22;;;;;;;4.88;1.10;;;17.20;47.10;;;;;;4950159;28;93154;-63
2022/04/01 10:38:48;;;;;;;6.28;1.20;;;17.40;47.40;;;;;;4949633;28;93191;-64
2022/04/01 10:41:15;;;;;;;5.78;1.27;;;17.50;47.30;;;;;;4949796;28;92709;-63
2022/04/01 10:43:45;;;;;;;10.10;1.20;;;17.60;47.40;;;;;;4950067;28;92892;-63
2022/04/01 10:46:19;;;;;;;2.50;1.00;;;17.60;47.40;;;;;;4950445;28;92186;-63
2022/04/01 10:52:08;;;;;;;2.70;1.17;;;17.80;47.70;;;;;;4952037;28;92584;-63
2022/04/01 10:54:38;;;;;;;4.03;1.20;;;17.90;47.80;;;;;;4951718;28;95374;-63
2022/04/01 10:57:06;;;;;;;5.35;1.40;;;17.90;47.70;;;;;;4953099;28;93033;-63
2022/04/01 10:59:46;;;;;;;6.18;1.30;;;17.90;48.70;;;;;;4952884;28;94566;-63
2022/04/01 11:02:15;;;;;;;5.80;1.20;;;17.90;47.80;;;;;;4952199;28;93879;-63
2022/04/01 11:04:44;;;;;;;3.53;1.30;;;17.90;47.80;;;;;;4953165;28;92580;-63
2022/04/01 11:07:30;;;;;;;4.50;1.67;;;18.00;47.90;;;;;;4953004;28;92982;-64
2022/04/01 11:10:01;;;;;;;4.43;1.20;;;18.00;48.00;;;;;;4952308;28;94487;-63
2022/04/01 11:12:36;;;;;;;5.47;1.48;;;18.00;48.10;;;;;;4951177;28;93725;-63
2022/04/01 11:15:07;;;;;;;7.00;1.27;;;18.00;48.10;;;;;;4952622;28;92836;-66
2022/04/01 11:17:35;;;;;;;10.75;2.08;;;18.00;48.10;;;;;;4953034;28;92966;-63
2022/04/01 11:20:04;;;;;;;7.90;1.63;;;18.00;48.30;;;;;;4950517;28;96639;-65
2022/04/01 11:22:46;;;;;;;10.25;1.73;;;18.00;48.30;;;;;;4951638;28;96186;-64
2022/04/01 11:25:24;;;;;;;9.70;1.83;;;18.00;48.40;;;;;;4951593;28;92744;-64
2022/04/01 11:28:05;;;;;;;15.60;1.88;;;18.00;48.60;;;;;;4952486;28;92988;-64
2022/04/01 11:30:34;;;;;;;13.93;1.70;;;18.10;48.70;;;;;;4950701;28;94815;-64
2022/04/01 11:33:14;;;;;;;21.60;2.17;;;18.00;48.60;;;;;;4952557;28;93810;-65
2022/04/01 11:35:44;;;;;;;15.95;2.10;;;18.00;48.50;;;;;;4952605;28;92654;-66
2022/04/01 11:38:16;;;;;;;12.48;1.90;;;18.10;48.50;;;;;;4953447;28;92290;-67
2022/04/01 11:40:43;;;;;;;15.20;1.98;;;18.10;48.40;;;;;;4952633;28;96168;-65
2022/04/01 11:43:12;;;;;;;8.63;1.90;;;18.10;48.00;;;;;;4951935;28;94269;-66
2022/04/01 11:45:38;;;;;;;14.38;2.30;;;18.10;47.90;;;;;;4951487;28;94977;-65
2022/04/01 11:48:35;;;;;;;8.07;1.50;;;18.10;47.80;;;;;;4952903;28;92851;-65
2022/04/01 11:51:23;;;;;;;7.78;1.63;;;18.10;47.70;;;;;;4952381;28;93687;-65
2022/04/01 11:53:55;;;;;;;9.32;2.03;;;18.10;47.70;;;;;;4952194;28;94955;-65
2022/04/01 11:56:22;;;;;;;9.20;1.77;;;18.10;47.70;;;;;;4951616;28;94367;-65
2022/04/01 11:58:52;;;;;;;8.45;1.83;;;18.10;47.50;;;;;;4952721;28;94748;-64
2022/04/01 12:01:20;;;;;;;10.68;2.08;;;18.20;47.50;;;;;;4951388;28;94185;-65
2022/04/01 12:03:46;;;;;;;6.40;1.63;;;18.20;47.50;;;;;;4952513;28;92898;-65
2022/04/01 12:09:04;;;;;;;7.30;1.85;;;18.30;47.50;;;;;;4952282;28;93004;-65
2022/04/01 12:11:30;;;;;;;;;;;18.20;47.50;;;;;;4950964;28;96912;-65
2022/04/01 12:13:55;;;;;;;9.32;1.80;;;18.20;47.50;;;;;;4953117;28;95557;-64
2022/04/01 12:16:24;;;;;;;8.02;1.83;;;18.20;47.60;;;;;;4951473;28;92527;-65
2022/04/01 12:18:50;;;;;;;8.00;1.70;;;18.30;47.50;;;;;;4950611;28;92499;-65
2022/04/01 12:21:22;;;;;;;7.28;1.67;;;18.30;47.50;;;;;;4951435;28;94075;-66
2022/04/01 12:23:49;;;;;;;5.57;1.60;;;18.30;47.40;;;;;;4951813;28;93865;-65
2022/04/01 12:26:20;;;;;;;5.10;1.60;;;18.30;47.50;;;;;;4951521;28;93021;-65
2022/04/01 12:28:49;;;;;;;6.20;1.83;;;18.40;47.40;;;;;;4951651;28;92064;-65
2022/04/01 12:31:26;;;;;;;6.22;1.52;;;18.40;47.40;;;;;;4950918;28;94081;-65
2022/04/01 12:33:54;;;;;;;5.00;1.40;;;18.40;48.40;;;;;;4951603;28;93780;-65
2022/04/01 12:36:35;;;;;;;4.93;1.50;;;18.50;47.30;;;;;;4950815;28;94860;-66
2022/04/01 12:39:06;;;;;;;4.40;1.35;;;18.50;47.30;;;;;;4951814;28;92439;-66
2022/04/01 12:41:32;;;;;;;2.28;1.17;;;18.50;47.30;;;;;;4950960;28;94112;-66
2022/04/01 12:44:00;;;;;;;4.47;1.42;;;18.50;47.30;;;;;;4951617;28;93837;-67
2022/04/01 12:46:31;;;;;;;5.57;1.45;;;18.50;47.40;;;;;;4951536;28;92454;-64
2022/04/01 12:48:59;;;;;;;5.40;1.20;;;18.50;47.40;;;;;;4951388;28;92671;-67
2022/04/01 12:51:29;;;;;;;5.07;1.33;;;18.50;47.40;;;;;;4950455;28;94099;-65
2022/04/01 12:54:01;;;;;;;4.88;1.55;;;18.50;47.40;;;;;;4951429;28;95908;-65
2022/04/01 12:56:38;;;;;;;5.75;1.77;;;18.50;47.50;;;;;;4950212;28;92477;-65
2022/04/01 12:59:12;;;;;;;6.00;1.60;;;18.50;47.40;;;;;;4951471;28;92880;-65
2022/04/01 13:01:43;;;;;;;4.93;1.30;;;18.50;47.60;;;;;;4949754;28;97206;-65
2022/04/01 13:04:16;;;;;;;7.78;1.30;;;18.50;47.50;;;;;;4951374;28;96515;-65
2022/04/01 13:06:42;;;;;;;4.97;1.38;;;18.60;47.60;;;;;;4950750;28;92643;-66
2022/04/01 13:09:10;;;;;;;12.23;1.27;;;18.60;47.70;;;;;;4951812;28;93006;-65
2022/04/01 13:11:45;;;;;;;8.45;1.40;;;18.60;47.80;;;;;;4950440;28;94197;-65
2022/04/01 13:14:22;;;;;;;10.93;1.83;;;18.60;48.00;;;;;;4950013;28;92863;-65
2022/04/01 13:16:54;;;;;;;10.93;1.58;;;18.60;48.10;;;;;;4951281;28;93989;-64
2022/04/01 13:19:23;;;;;;;9.53;1.50;;;18.60;48.20;;;;;;4951736;28;92117;-64
2022/04/01 13:21:50;;;;;;;5.97;1.45;;;18.60;48.30;;;;;;4951668;28;93042;-65
2022/04/01 13:24:26;;;;;;;8.35;1.75;;;18.60;48.40;;;;;;4950493;28;93868;-66
2022/04/01 13:26:53;;;;;;;7.60;1.60;;;18.60;48.50;;;;;;4949548;28;94908;-66
2022/04/01 13:29:19;;;;;;;16.17;1.85;;;18.60;48.60;;;;;;4950774;28;92565;-65
2022/04/01 13:31:46;;;;;;;8.00;1.85;;;18.70;48.70;;;;;;4950803;28;94747;-64
2022/04/01 13:34:12;;;;;;;10.02;1.77;;;18.70;48.50;;;;;;4949616;28;93958;-64
2022/04/01 13:36:38;;;;;;;7.68;1.80;;;18.70;48.40;;;;;;4949845;28;93056;-64
2022/04/01 13:39:05;;;;;;;6.65;1.58;;;18.70;48.40;;;;;;4951128;28;93168;-65
2022/04/01 13:41:31;;;;;;;7.68;1.80;;;18.70;48.30;;;;;;4950953;28;93124;-64
2022/04/01 13:43:58;;;;;;;8.68;1.52;;;18.80;48.40;;;;;;4950481;28;93964;-66
2022/04/01 13:46:24;;;;;;;11.32;1.75;;;18.80;48.30;;;;;;4950695;28;92522;-64
2022/04/01 13:48:52;;;;;;;6.85;1.52;;;18.80;48.30;;;;;;4950631;28;92954;-67
2022/04/01 13:51:18;;;;;;;7.53;1.40;;;18.80;48.20;;;;;;4949720;28;96506;-64
2022/04/01 13:53:43;;;;;;;6.93;1.60;;;18.80;48.10;;;;;;4950733;28;96591;-66
2022/04/01 13:56:09;;;;;;;8.45;1.45;;;18.90;48.20;;;;;;4950732;28;92586;-65
2022/04/01 13:58:36;;;;;;;6.47;1.48;;;18.90;48.10;;;;;;4949407;28;93094;-64
2022/04/01 14:01:02;;;;;;;5.10;1.42;;;18.90;48.00;;;;;;4950366;28;93794;-64
2022/04/01 14:03:27;;;;;;;8.52;1.58;;;18.90;48.00;;;;;;4950023;28;92737;-64
2022/04/01 14:05:53;;;;;;;8.13;1.60;;;18.90;47.90;;;;;;4949695;28;96174;-64
2022/04/01 14:08:20;;;;;;;7.32;1.60;;;18.90;47.90;;;;;;4950022;28;92304;-64
2022/04/01 14:10:48;;;;;;;5.85;1.40;;;19.00;47.80;;;;;;4949702;28;95076;-64
2022/04/01 14:13:14;;;;;;;6.05;1.73;;;19.00;47.80;;;;;;4949632;28;94179;-64
2022/04/01 14:15:39;;;;;;;12.35;1.85;;;19.00;47.70;;;;;;4947841;28;95238;-67
2022/04/01 14:18:05;;;;;;;8.38;1.40;;;19.00;47.90;;;;;;4950061;28;92782;-64
2022/04/01 14:20:31;;;;;;;9.82;1.80;;;19.00;48.00;;;;;;4949254;28;95343;-65
2022/04/01 14:22:57;;;;;;;6.32;1.65;;;19.00;48.00;;;;;;4949961;28;92688;-64
2022/04/01 14:25:23;;;;;;;8.60;1.65;;;19.00;47.80;;;;;;4952560;28;92498;-64
2022/04/01 14:27:49;;;;;;;6.78;1.63;;;19.00;47.80;;;;;;4953239;28;94125;-64
2022/04/01 14:30:18;;;;;;;9.32;1.40;;;19.00;47.70;;;;;;4935908;28;93132;-64